Time;durP1;ratioP1;P1;durP2;ratioP2;P2;SDS_P1;SDS_P2;PMS_P1;PMS_P2;Temp;Humidity;BMP_temperature;BMP_pressure;BME280_temperature;BME280_humidity;BME280_pressure;Samples;Min_cycle;Max_cycle;Signal;HPM_P1;HPM_P2
2021/05/01 00:00:52;;;;;;;30.37;26.43;;;7.90;99.90;;;;;;4988517;28;20196;-76
2021/05/01 00:03:17;;;;;;;33.37;26.97;;;7.90;99.90;;;;;;4987270;28;20221;-77
2021/05/01 00:05:43;;;;;;;32.70;27.53;;;8.00;99.90;;;;;;4986254;28;20676;-77
2021/05/01 00:08:08;;;;;;;29.47;25.10;;;7.90;99.90;;;;;;4987975;28;20630;-77
2021/05/01 00:10:34;;;;;;;29.80;26.30;;;7.90;99.90;;;;;;4987124;28;20217;-76
2021/05/01 00:13:00;;;;;;;30.73;26.10;;;7.90;99.90;;;;;;4986694;28;20176;-76
2021/05/01 00:15:25;;;;;;;29.70;25.97;;;7.90;99.90;;;;;;4985995;28;20189;-76
2021/05/01 00:17:51;;;;;;;31.20;26.57;;;7.90;99.90;;;;;;4986543;28;20582;-76
2021/05/01 00:20:17;;;;;;;34.60;28.37;;;7.90;99.90;;;;;;4984125;28;20267;-77
2021/05/01 00:22:42;;;;;;;28.47;25.13;;;7.90;99.90;;;;;;4987278;28;20187;-76
2021/05/01 00:25:08;;;;;;;29.00;24.97;;;7.90;99.90;;;;;;4986920;28;20200;-75
2021/05/01 00:27:34;;;;;;;28.90;25.60;;;7.80;99.90;;;;;;4986810;28;20216;-78
2021/05/01 00:30:00;;;;;;;29.23;24.77;;;7.80;99.90;;;;;;4989161;28;20443;-76
2021/05/01 00:32:25;;;;;;;31.00;26.47;;;7.80;99.90;;;;;;4990185;28;20309;-77
2021/05/01 00:34:51;;;;;;;31.27;25.63;;;7.80;99.90;;;;;;4992712;28;20550;-77
2021/05/01 00:37:17;;;;;;;31.63;27.20;;;7.80;99.90;;;;;;4993323;28;20660;-76
2021/05/01 00:39:42;;;;;;;36.23;27.30;;;7.80;99.90;;;;;;4993519;28;20189;-74
2021/05/01 00:42:08;;;;;;;37.63;29.00;;;7.80;99.90;;;;;;4992762;28;20220;-76
2021/05/01 00:44:33;;;;;;;33.67;28.50;;;7.80;99.90;;;;;;4993234;28;20184;-77
2021/05/01 00:46:59;;;;;;;33.40;26.97;;;7.80;99.90;;;;;;4990307;28;20211;-76
2021/05/01 00:49:24;;;;;;;30.50;25.27;;;7.70;99.90;;;;;;4999154;28;20599;-76
2021/05/01 00:51:50;;;;;;;30.40;26.30;;;7.70;99.90;;;;;;5004981;28;20687;-77
2021/05/01 00:54:16;;;;;;;34.73;25.57;;;7.70;99.90;;;;;;5005065;28;20180;-77
2021/05/01 00:56:41;;;;;;;32.47;26.27;;;7.60;99.90;;;;;;4991979;28;20682;-77
2021/05/01 00:59:07;;;;;;;32.90;26.70;;;7.60;99.90;;;;;;4990098;28;20180;-77
2021/05/01 01:01:33;;;;;;;34.10;28.00;;;7.60;99.90;;;;;;4990004;28;20216;-75
2021/05/01 01:03:58;;;;;;;32.43;26.57;;;7.70;99.90;;;;;;4991796;28;20176;-77
2021/05/01 01:06:24;;;;;;;30.47;26.60;;;7.60;99.90;;;;;;4993845;28;20372;-76
2021/05/01 01:08:50;;;;;;;29.80;26.27;;;7.60;99.90;;;;;;4990793;28;20271;-77
2021/05/01 01:11:15;;;;;;;32.90;27.60;;;7.60;99.90;;;;;;4998361;28;20211;-75
2021/05/01 01:13:41;;;;;;;30.27;26.97;;;7.60;99.90;;;;;;4993253;28;20196;-77
2021/05/01 01:16:07;;;;;;;35.87;28.43;;;7.60;99.90;;;;;;4989135;28;20177;-75
2021/05/01 01:18:33;;;;;;;36.77;28.60;;;7.60;99.90;;;;;;4990787;28;20211;-76
2021/05/01 01:21:02;;;;;;;35.30;28.40;;;7.60;99.90;;;;;;4989117;28;20181;-76
2021/05/01 01:23:28;;;;;;;33.60;28.07;;;7.60;99.90;;;;;;4990096;28;20474;-78
2021/05/01 01:25:53;;;;;;;33.40;27.03;;;7.60;99.90;;;;;;4988459;28;20529;-76
2021/05/01 01:28:19;;;;;;;31.73;26.97;;;7.50;99.90;;;;;;4989340;28;20475;-77
2021/05/01 01:30:45;;;;;;;34.30;27.30;;;7.50;99.90;;;;;;4990162;28;20274;-77
2021/05/01 01:33:11;;;;;;;32.27;27.40;;;7.50;99.90;;;;;;4989629;28;21021;-77
2021/05/01 01:35:38;;;;;;;34.30;27.37;;;7.60;99.90;;;;;;4989382;28;20185;-77
2021/05/01 01:38:06;;;;;;;35.40;27.70;;;7.60;99.90;;;;;;4978401;28;20897;-77
2021/05/01 01:40:32;;;;;;;31.83;25.63;;;7.60;99.90;;;;;;4989434;28;20463;-77
2021/05/01 01:42:57;;;;;;;33.17;26.80;;;7.60;99.90;;;;;;4989064;28;20420;-77
2021/05/01 01:45:29;;;;;;;32.97;27.43;;;7.60;99.90;;;;;;4988958;28;20439;-74
2021/05/01 01:47:55;;;;;;;32.40;26.93;;;7.60;99.90;;;;;;4988812;28;20447;-76
2021/05/01 01:50:22;;;;;;;32.73;28.37;;;7.60;99.90;;;;;;4984133;28;20416;-76
2021/05/01 01:52:48;;;;;;;34.33;27.20;;;7.60;99.90;;;;;;4989272;28;20519;-76
2021/05/01 01:55:16;;;;;;;32.43;26.50;;;7.60;99.90;;;;;;4988687;28;20510;-77
2021/05/01 01:57:43;;;;;;;35.00;29.83;;;7.60;99.90;;;;;;4988742;28;20291;-76
2021/05/01 02:00:22;;;;;;;39.37;30.87;;;7.60;99.90;;;;;;4982817;28;20427;-76
2021/05/01 02:02:48;;;;;;;33.53;28.33;;;7.60;99.90;;;;;;4987436;28;20427;-76
2021/05/01 02:05:13;;;;;;;37.00;29.10;;;7.60;99.90;;;;;;4988903;28;20436;-76
2021/05/01 02:07:39;;;;;;;33.03;28.40;;;7.60;99.90;;;;;;4988678;28;20633;-76
2021/05/01 02:10:07;;;;;;;33.20;29.50;;;7.50;99.90;;;;;;4988925;28;20180;-76
2021/05/01 02:12:37;;;;;;;33.40;27.93;;;7.50;99.90;;;;;;4988715;28;20208;-76
2021/05/01 02:15:13;;;;;;;31.87;27.43;;;7.40;99.90;;;;;;4983884;28;20489;-76
2021/05/01 02:17:41;;;;;;;33.70;27.77;;;7.40;99.90;;;;;;4982673;28;20467;-76
2021/05/01 02:20:08;;;;;;;31.33;25.63;;;7.50;99.90;;;;;;4987959;28;20818;-76
2021/05/01 02:22:34;;;;;;;33.73;27.83;;;7.40;99.90;;;;;;4988262;28;20432;-77
2021/05/01 02:25:00;;;;;;;33.10;27.87;;;7.20;99.90;;;;;;4988833;28;20438;-74
2021/05/01 02:27:25;;;;;;;32.80;28.13;;;7.20;99.90;;;;;;4988616;28;20477;-76
2021/05/01 02:29:51;;;;;;;36.60;28.57;;;7.30;99.90;;;;;;4988144;28;20200;-76
2021/05/01 02:32:16;;;;;;;35.20;27.67;;;7.20;99.90;;;;;;4988107;28;20781;-76
2021/05/01 02:34:42;;;;;;;34.43;27.43;;;7.20;99.90;;;;;;4987884;28;20189;-76
2021/05/01 02:37:09;;;;;;;33.90;27.90;;;7.10;99.90;;;;;;4987951;28;20212;-76
2021/05/01 02:39:35;;;;;;;34.20;27.93;;;7.10;99.90;;;;;;4987619;28;20196;-76
2021/05/01 02:42:01;;;;;;;36.13;28.10;;;7.10;99.90;;;;;;4988299;28;20423;-76
2021/05/01 02:44:26;;;;;;;33.67;26.63;;;7.00;99.90;;;;;;4989617;28;20188;-77
2021/05/01 02:46:52;;;;;;;34.50;26.90;;;7.00;99.90;;;;;;4988250;28;20224;-77
2021/05/01 02:49:17;;;;;;;32.40;27.90;;;6.80;99.90;;;;;;4980835;28;20200;-76
2021/05/01 02:51:43;;;;;;;36.23;26.30;;;6.80;99.90;;;;;;4981737;28;20633;-77
2021/05/01 02:54:08;;;;;;;32.43;25.80;;;6.80;99.90;;;;;;4988086;28;20280;-78
2021/05/01 02:56:34;;;;;;;32.13;25.73;;;6.80;99.90;;;;;;4988093;28;20236;-77
2021/05/01 02:59:00;;;;;;;29.67;24.00;;;6.70;99.90;;;;;;4987328;28;20213;-77
2021/05/01 03:01:25;;;;;;;27.50;22.57;;;6.70;99.90;;;;;;4987591;28;20665;-77
2021/05/01 03:03:51;;;;;;;26.90;21.80;;;6.70;99.90;;;;;;4987470;28;20672;-75
2021/05/01 03:06:16;;;;;;;26.93;22.37;;;6.70;99.90;;;;;;4987618;28;20194;-76
2021/05/01 03:08:42;;;;;;;30.33;22.63;;;6.70;99.90;;;;;;4982717;28;20196;-76
2021/05/01 03:11:08;;;;;;;24.77;20.60;;;6.70;99.90;;;;;;4987794;28;20279;-76
2021/05/01 03:13:34;;;;;;;26.07;22.83;;;6.70;99.90;;;;;;4987747;28;20431;-76
2021/05/01 03:16:00;;;;;;;26.63;22.00;;;6.70;99.90;;;;;;4987126;28;20944;-76
2021/05/01 03:18:25;;;;;;;23.63;19.80;;;6.60;99.90;;;;;;4988152;28;20673;-76
2021/05/01 03:20:52;;;;;;;24.47;21.23;;;6.70;99.90;;;;;;4987801;28;20223;-76
2021/05/01 03:23:19;;;;;;;27.23;22.43;;;6.70;99.90;;;;;;4981266;28;20176;-76
2021/05/01 03:25:45;;;;;;;25.60;22.20;;;6.70;99.90;;;;;;4986389;28;20428;-76
2021/05/01 03:28:10;;;;;;;24.70;20.97;;;6.70;99.90;;;;;;4987018;28;20451;-76
2021/05/01 03:30:36;;;;;;;23.67;21.10;;;6.80;99.90;;;;;;4987325;28;20184;-77
2021/05/01 03:33:02;;;;;;;22.60;20.20;;;6.70;99.90;;;;;;4987581;28;20255;-76
2021/05/01 03:35:27;;;;;;;25.43;22.60;;;6.80;99.90;;;;;;4982023;28;20208;-77
2021/05/01 03:37:53;;;;;;;25.70;22.40;;;6.70;99.90;;;;;;4986905;28;20234;-76
2021/05/01 03:40:20;;;;;;;27.00;22.20;;;6.70;99.90;;;;;;4987601;28;20220;-76
2021/05/01 03:42:45;;;;;;;28.73;22.67;;;6.70;99.90;;;;;;4987025;28;20188;-77
2021/05/01 03:45:11;;;;;;;26.00;22.70;;;6.70;99.90;;;;;;4985229;28;20442;-77
2021/05/01 03:47:37;;;;;;;28.90;23.73;;;6.70;99.90;;;;;;4981249;28;20611;-77
2021/05/01 03:50:04;;;;;;;32.70;24.70;;;6.60;99.90;;;;;;4984901;28;20431;-78
2021/05/01 03:52:29;;;;;;;28.87;25.47;;;6.50;99.90;;;;;;4986785;28;20303;-77
2021/05/01 03:54:55;;;;;;;34.30;25.97;;;6.50;99.90;;;;;;4987415;28;20510;-75
2021/05/01 03:57:21;;;;;;;34.07;26.70;;;6.40;99.90;;;;;;4986181;28;20205;-77
2021/05/01 03:59:46;;;;;;;36.00;27.70;;;6.40;99.90;;;;;;4987616;28;20181;-76
2021/05/01 04:02:12;;;;;;;33.03;27.27;;;6.30;99.90;;;;;;4983570;28;20181;-76
2021/05/01 04:04:38;;;;;;;37.40;29.30;;;6.20;99.90;;;;;;4987296;28;20196;-76
2021/05/01 04:07:03;;;;;;;36.73;27.77;;;6.20;99.90;;;;;;4987115;28;20567;-76
2021/05/01 04:09:29;;;;;;;39.03;30.70;;;6.20;99.90;;;;;;4986915;28;20196;-77
2021/05/01 04:11:55;;;;;;;40.80;31.40;;;6.10;99.90;;;;;;4987264;28;20612;-77
2021/05/01 04:14:20;;;;;;;41.77;32.33;;;6.10;99.90;;;;;;4987360;28;20180;-74
2021/05/01 04:16:46;;;;;;;40.47;32.37;;;6.10;99.90;;;;;;4987019;28;21000;-77
2021/05/01 04:19:11;;;;;;;43.60;34.67;;;6.00;99.90;;;;;;4986714;28;20181;-74
2021/05/01 04:21:37;;;;;;;42.10;32.33;;;6.00;99.90;;;;;;4986907;28;20758;-78
2021/05/01 04:24:03;;;;;;;44.83;35.07;;;5.90;99.90;;;;;;4974185;28;20706;-76
2021/05/01 04:26:28;;;;;;;44.30;33.00;;;5.80;99.90;;;;;;4978159;28;20278;-76
2021/05/01 04:28:56;;;;;;;47.07;35.30;;;5.80;99.90;;;;;;4986661;28;20692;-76
2021/05/01 04:31:22;;;;;;;44.97;34.60;;;5.80;99.90;;;;;;4983931;28;20197;-77
2021/05/01 04:33:47;;;;;;;44.20;34.50;;;5.80;99.90;;;;;;4986969;28;20586;-76
2021/05/01 04:36:13;;;;;;;43.60;33.07;;;5.80;99.90;;;;;;4991331;28;20267;-73
2021/05/01 04:38:39;;;;;;;44.00;34.00;;;5.80;99.90;;;;;;4991884;28;20189;-75
2021/05/01 04:41:04;;;;;;;42.37;31.80;;;5.80;99.90;;;;;;4990272;28;20267;-77
2021/05/01 04:43:31;;;;;;;49.63;34.00;;;5.70;99.90;;;;;;4986998;28;20559;-76
2021/05/01 04:45:58;;;;;;;44.40;33.27;;;5.80;99.90;;;;;;4984016;28;20184;-77
2021/05/01 04:48:23;;;;;;;47.67;35.73;;;5.80;99.90;;;;;;4984605;28;20952;-76
2021/05/01 04:50:52;;;;;;;42.87;32.70;;;5.80;99.90;;;;;;4981146;28;20459;-77
2021/05/01 04:53:18;;;;;;;43.03;33.00;;;5.90;99.90;;;;;;4986771;28;20191;-78
2021/05/01 04:55:44;;;;;;;45.90;34.67;;;5.90;99.90;;;;;;4985384;28;20821;-77
2021/05/01 04:58:10;;;;;;;42.80;34.83;;;5.90;99.90;;;;;;4987228;28;20448;-77
2021/05/01 05:00:36;;;;;;;43.10;32.87;;;6.00;99.90;;;;;;4987367;28;20183;-75
2021/05/01 05:03:01;;;;;;;46.27;31.83;;;5.90;99.90;;;;;;4993758;28;20208;-76
2021/05/01 05:05:27;;;;;;;46.00;32.20;;;6.00;99.90;;;;;;4985920;28;20231;-75
2021/05/01 05:07:53;;;;;;;42.10;32.10;;;6.10;99.90;;;;;;4986715;28;20205;-77
2021/05/01 05:10:18;;;;;;;40.73;32.23;;;6.10;99.90;;;;;;4988044;28;20188;-77
2021/05/01 05:12:47;;;;;;;46.43;34.60;;;6.20;99.90;;;;;;4990108;28;20275;-77
2021/05/01 05:15:13;;;;;;;42.77;34.30;;;6.20;99.90;;;;;;4990392;28;20193;-76
2021/05/01 05:17:39;;;;;;;39.93;32.47;;;6.20;99.90;;;;;;4987869;28;20538;-76
2021/05/01 05:20:05;;;;;;;44.00;34.73;;;6.30;99.90;;;;;;4989428;28;20192;-77
2021/05/01 05:22:31;;;;;;;46.00;36.07;;;6.40;99.90;;;;;;4989357;28;20197;-77
2021/05/01 05:24:57;;;;;;;46.10;35.40;;;6.40;99.90;;;;;;4992401;28;20440;-75
2021/05/01 05:27:22;;;;;;;44.70;34.17;;;6.40;99.90;;;;;;4994561;28;20724;-76
2021/05/01 05:29:51;;;;;;;45.00;34.97;;;6.50;99.90;;;;;;4989844;28;20205;-75
2021/05/01 05:32:23;;;;;;;44.67;36.17;;;6.60;99.90;;;;;;4989368;28;20690;-75
2021/05/01 05:34:50;;;;;;;45.00;34.80;;;6.60;99.90;;;;;;4993495;28;20426;-75
2021/05/01 05:37:16;;;;;;;44.20;34.00;;;6.70;99.90;;;;;;4992306;28;20459;-75
2021/05/01 05:39:44;;;;;;;44.50;34.30;;;6.90;99.90;;;;;;4989520;28;20927;-76
2021/05/01 05:42:10;;;;;;;43.17;34.03;;;6.90;99.90;;;;;;4995894;28;20499;-77
2021/05/01 05:44:37;;;;;;;46.20;35.10;;;6.90;99.90;;;;;;4990339;28;20493;-76
2021/05/01 05:47:03;;;;;;;47.30;36.03;;;7.00;99.90;;;;;;4995254;28;20476;-77
2021/05/01 05:49:28;;;;;;;43.20;33.47;;;7.10;99.90;;;;;;4990195;28;20956;-76
2021/05/01 05:51:55;;;;;;;45.20;34.00;;;7.20;99.90;;;;;;4989083;28;20259;-76
2021/05/01 05:54:20;;;;;;;39.37;31.20;;;7.30;99.90;;;;;;4990535;28;20184;-74
2021/05/01 05:56:47;;;;;;;44.03;33.30;;;7.40;99.90;;;;;;4996999;28;20459;-75
2021/05/01 05:59:12;;;;;;;43.67;34.80;;;7.40;99.90;;;;;;4989091;28;20331;-76
2021/05/01 06:01:39;;;;;;;42.67;32.57;;;7.60;99.90;;;;;;4989126;28;20510;-76
2021/05/01 06:04:12;;;;;;;40.77;32.47;;;7.70;99.90;;;;;;4992622;28;20290;-76
2021/05/01 06:06:44;;;;;;;41.30;31.20;;;7.80;99.90;;;;;;4997720;28;20474;-73
2021/05/01 06:09:11;;;;;;;40.00;33.07;;;7.90;99.90;;;;;;4993635;28;20512;-76
2021/05/01 06:11:38;;;;;;;42.60;31.73;;;7.80;99.90;;;;;;4989197;28;20482;-75
2021/05/01 06:14:04;;;;;;;42.97;32.10;;;7.90;99.90;;;;;;4987174;28;20434;-77
2021/05/01 06:16:31;;;;;;;40.00;32.50;;;8.00;99.90;;;;;;4987463;28;20766;-78
2021/05/01 06:18:58;;;;;;;36.60;32.10;;;8.10;99.90;;;;;;4988605;28;20431;-76
2021/05/01 06:21:23;;;;;;;37.20;31.87;;;8.10;99.90;;;;;;4989517;28;20438;-76
2021/05/01 06:23:49;;;;;;;38.63;31.70;;;8.10;99.90;;;;;;4984022;28;20432;-77
2021/05/01 06:26:15;;;;;;;36.20;30.23;;;8.20;99.90;;;;;;4989639;28;20192;-72
2021/05/01 06:28:41;;;;;;;39.57;31.10;;;8.40;99.90;;;;;;4990950;28;20843;-76
2021/05/01 06:31:08;;;;;;;38.60;32.00;;;8.40;99.90;;;;;;4984146;28;20564;-77
2021/05/01 06:33:39;;;;;;;38.27;30.43;;;8.50;99.90;;;;;;4983182;28;20431;-76
2021/05/01 06:36:06;;;;;;;38.27;32.30;;;8.60;99.90;;;;;;4982890;28;20428;-76
2021/05/01 06:38:34;;;;;;;39.37;31.00;;;8.80;99.90;;;;;;4982556;28;20456;-76
2021/05/01 06:41:04;;;;;;;39.73;31.83;;;8.80;99.90;;;;;;4982692;28;20435;-75
2021/05/01 06:44:02;;;;;;;37.13;30.53;;;9.00;99.90;;;;;;4982498;28;20447;-74
2021/05/01 06:46:29;;;;;;;35.10;29.00;;;9.00;99.90;;;;;;4983020;28;20526;-78
2021/05/01 06:49:01;;;;;;;36.40;29.67;;;9.00;99.90;;;;;;4983543;28;20431;-76
2021/05/01 06:51:28;;;;;;;34.10;27.60;;;9.10;99.90;;;;;;4991143;28;20450;-81
2021/05/01 06:53:57;;;;;;;34.73;28.30;;;9.20;99.90;;;;;;4989573;28;20898;-75
2021/05/01 06:56:23;;;;;;;33.40;27.67;;;9.20;99.90;;;;;;4985808;28;20434;-80
2021/05/01 06:58:49;;;;;;;33.93;27.10;;;9.30;99.90;;;;;;4982980;28;20463;-78
2021/05/01 07:01:15;;;;;;;29.30;25.70;;;9.40;99.90;;;;;;4991242;28;20419;-80
2021/05/01 07:03:45;;;;;;;32.57;27.03;;;9.30;99.90;;;;;;4990653;28;20196;-81
2021/05/01 07:06:18;;;;;;;34.97;28.70;;;9.30;99.90;;;;;;4988289;28;20426;-81
2021/05/01 07:08:44;;;;;;;29.77;25.47;;;9.30;99.90;;;;;;4983249;28;20986;-80
2021/05/01 07:11:12;;;;;;;26.00;23.30;;;9.30;99.90;;;;;;4983508;28;20796;-79
2021/05/01 07:13:38;;;;;;;26.40;23.57;;;9.50;99.90;;;;;;4982820;28;20427;-79
2021/05/01 07:16:06;;;;;;;27.23;23.70;;;9.50;99.90;;;;;;4983451;28;20805;-77
2021/05/01 07:18:33;;;;;;;34.60;24.13;;;9.70;99.90;;;;;;4984933;28;20556;-80
2021/05/01 07:21:01;;;;;;;31.00;23.80;;;9.80;99.90;;;;;;4984660;28;20439;-78
2021/05/01 07:23:27;;;;;;;26.27;22.57;;;10.00;99.90;;;;;;4982869;28;20462;-80
2021/05/01 07:25:53;;;;;;;27.10;24.17;;;10.00;99.90;;;;;;4982199;28;20921;-78
2021/05/01 07:28:23;;;;;;;26.73;23.87;;;10.20;99.90;;;;;;4982454;28;20755;-79
2021/05/01 07:30:53;;;;;;;25.87;23.07;;;10.20;99.90;;;;;;4982371;28;20846;-77
2021/05/01 07:33:29;;;;;;;25.77;21.93;;;10.20;99.90;;;;;;4982512;28;20439;-78
2021/05/01 07:35:58;;;;;;;26.17;22.40;;;10.30;99.90;;;;;;4983777;28;20832;-80
2021/05/01 07:38:25;;;;;;;27.63;23.37;;;10.40;99.90;;;;;;4983977;28;20666;-79
2021/05/01 07:40:52;;;;;;;28.07;25.07;;;10.50;99.90;;;;;;4983027;28;21023;-80
2021/05/01 07:43:20;;;;;;;28.13;22.83;;;10.60;99.90;;;;;;4982008;28;20791;-78
2021/05/01 07:45:47;;;;;;;25.47;22.80;;;10.70;99.90;;;;;;4981855;28;20779;-80
2021/05/01 07:48:15;;;;;;;30.83;24.47;;;10.70;99.90;;;;;;4982815;28;20447;-78
2021/05/01 07:50:41;;;;;;;28.30;25.30;;;10.70;99.90;;;;;;4982938;28;20924;-78
2021/05/01 07:53:08;;;;;;;26.47;23.60;;;11.00;99.90;;;;;;4984776;28;21098;-78
2021/05/01 07:55:34;;;;;;;29.30;23.87;;;10.90;99.90;;;;;;4984633;28;20444;-79
2021/05/01 07:57:59;;;;;;;25.53;22.83;;;11.10;99.90;;;;;;4981456;28;20971;-79
2021/05/01 08:00:25;;;;;;;25.57;22.97;;;11.20;99.90;;;;;;4984005;28;20199;-80
2021/05/01 08:02:51;;;;;;;25.07;22.43;;;11.10;99.90;;;;;;4982725;28;20259;-78
2021/05/01 08:05:21;;;;;;;26.47;22.23;;;11.20;99.90;;;;;;4983887;28;20568;-79
2021/05/01 08:07:48;;;;;;;23.80;21.37;;;11.40;99.90;;;;;;4982840;28;20208;-78
2021/05/01 08:10:14;;;;;;;24.00;21.37;;;11.60;99.90;;;;;;4982255;28;20436;-78
2021/05/01 08:12:40;;;;;;;23.27;20.50;;;11.50;99.90;;;;;;4982407;28;20582;-78
2021/05/01 08:15:08;;;;;;;23.17;20.87;;;11.50;99.90;;;;;;4982905;28;20435;-80
2021/05/01 08:17:34;;;;;;;22.10;20.00;;;11.70;99.90;;;;;;4990716;28;20200;-80
2021/05/01 08:19:59;;;;;;;19.93;17.93;;;11.80;99.90;;;;;;5002776;28;20424;-79
2021/05/01 08:22:25;;;;;;;21.90;19.60;;;11.80;99.90;;;;;;5004290;28;20215;-78
2021/05/01 08:24:51;;;;;;;21.93;19.70;;;11.70;99.90;;;;;;4983659;28;20902;-80
2021/05/01 08:27:16;;;;;;;21.23;19.10;;;11.70;99.90;;;;;;4984436;28;20846;-80
2021/05/01 08:29:42;;;;;;;22.43;20.30;;;11.60;99.90;;;;;;4981152;28;20211;-79
2021/05/01 08:32:08;;;;;;;20.70;18.60;;;11.70;99.90;;;;;;4982495;28;20768;-79
2021/05/01 08:34:33;;;;;;;23.23;20.83;;;11.70;99.90;;;;;;4983886;28;20184;-80
2021/05/01 08:37:00;;;;;;;24.50;20.30;;;12.00;99.90;;;;;;4982115;28;20196;-79
2021/05/01 08:39:26;;;;;;;21.70;19.40;;;12.20;99.90;;;;;;4982381;28;20211;-80
2021/05/01 08:41:51;;;;;;;20.37;18.27;;;12.30;99.90;;;;;;4984319;28;20432;-79
2021/05/01 08:44:17;;;;;;;21.33;18.77;;;12.20;99.90;;;;;;4984480;28;20180;-78
2021/05/01 08:46:46;;;;;;;21.93;19.53;;;12.20;99.90;;;;;;4983209;28;20212;-79
2021/05/01 08:49:12;;;;;;;22.97;19.77;;;12.40;99.90;;;;;;4983275;28;20551;-80
2021/05/01 08:51:41;;;;;;;21.13;19.13;;;12.60;99.90;;;;;;4983421;28;20463;-80
2021/05/01 08:54:06;;;;;;;20.07;18.00;;;12.70;99.90;;;;;;4983646;28;20862;-79
2021/05/01 08:56:32;;;;;;;20.60;18.47;;;12.90;99.90;;;;;;4985499;28;20451;-78
2021/05/01 08:59:00;;;;;;;20.83;18.73;;;13.10;99.90;;;;;;4985888;28;21636;-78
2021/05/01 09:01:25;;;;;;;19.77;17.73;;;13.40;99.90;;;;;;4986157;28;20431;-78
2021/05/01 09:03:52;;;;;;;21.70;18.70;;;13.50;99.90;;;;;;4985911;28;20435;-79
2021/05/01 09:06:22;;;;;;;19.87;17.57;;;13.70;99.90;;;;;;4985539;28;20180;-79
2021/05/01 09:08:57;;;;;;;18.93;17.13;;;13.70;99.90;;;;;;4985574;28;20577;-77
2021/05/01 09:11:39;;;;;;;19.60;17.70;;;13.80;99.90;;;;;;4985517;28;20478;-80
2021/05/01 09:14:18;;;;;;;18.70;16.80;;;13.90;99.90;;;;;;4985927;28;20435;-79
2021/05/01 09:16:59;;;;;;;20.17;18.23;;;13.80;99.90;;;;;;4984631;28;20450;-79
2021/05/01 09:19:35;;;;;;;19.80;17.90;;;14.00;99.90;;;;;;4986091;28;21004;-78
2021/05/01 09:22:14;;;;;;;18.20;16.40;;;13.80;99.90;;;;;;4985532;28;20435;-77
2021/05/01 09:24:43;;;;;;;19.10;17.20;;;13.90;99.90;;;;;;4984043;28;20814;-76
2021/05/01 09:27:15;;;;;;;22.30;20.10;;;13.90;99.90;;;;;;4984756;28;20459;-78
2021/05/01 09:29:41;;;;;;;19.67;17.67;;;13.90;99.90;;;;;;4984109;28;20494;-76
2021/05/01 09:32:23;;;;;;;19.17;17.27;;;13.50;99.90;;;;;;4984420;28;20485;-78
2021/05/01 09:34:53;;;;;;;19.23;17.47;;;13.30;99.90;;;;;;4985929;28;20435;-79
2021/05/01 09:37:24;;;;;;;18.80;16.90;;;13.10;99.90;;;;;;4984470;28;20512;-76
2021/05/01 09:39:52;;;;;;;21.53;19.03;;;13.00;99.90;;;;;;4984549;28;20435;-76
2021/05/01 09:42:20;;;;;;;18.90;17.10;;;12.90;99.90;;;;;;4984342;28;20501;-76
2021/05/01 09:45:03;;;;;;;19.30;17.30;;;12.90;99.90;;;;;;4982589;28;20477;-77
2021/05/01 09:47:29;;;;;;;21.47;19.30;;;13.00;99.90;;;;;;4975362;28;20464;-77
2021/05/01 09:49:55;;;;;;;21.80;19.80;;;13.30;99.90;;;;;;4983561;28;20566;-77
2021/05/01 09:52:21;;;;;;;20.53;18.63;;;13.30;99.90;;;;;;4984507;28;20228;-77
2021/05/01 09:54:47;;;;;;;23.27;20.97;;;13.30;99.90;;;;;;4984930;28;20620;-77
2021/05/01 09:57:18;;;;;;;21.10;18.90;;;13.20;99.90;;;;;;4984008;28;20458;-77
2021/05/01 09:59:45;;;;;;;20.97;18.77;;;13.20;99.90;;;;;;4984183;28;20817;-76
2021/05/01 10:02:19;;;;;;;22.33;20.13;;;13.10;99.90;;;;;;4983506;28;20519;-76
2021/05/01 10:05:09;;;;;;;19.87;17.60;;;13.10;99.90;;;;;;4983595;28;20436;-78
2021/05/01 10:07:39;;;;;;;19.53;17.60;;;13.10;99.90;;;;;;4982790;28;20486;-77
2021/05/01 10:10:06;;;;;;;21.60;19.30;;;13.20;99.90;;;;;;4983083;28;20463;-76
2021/05/01 10:12:35;;;;;;;18.73;16.53;;;13.40;99.90;;;;;;4983895;28;20475;-77
2021/05/01 10:15:12;;;;;;;21.03;18.93;;;13.50;99.90;;;;;;4983078;28;20424;-74
2021/05/01 10:17:38;;;;;;;20.30;18.27;;;13.40;99.90;;;;;;4982577;28;20439;-76
2021/05/01 10:20:06;;;;;;;19.63;16.40;;;13.40;99.90;;;;;;4985703;28;20434;-78
2021/05/01 10:22:40;;;;;;;17.97;16.30;;;13.50;99.90;;;;;;4984154;28;20224;-79
2021/05/01 10:25:25;;;;;;;19.80;17.80;;;13.60;99.90;;;;;;4982094;28;20435;-78
2021/05/01 10:28:01;;;;;;;18.00;15.70;;;13.80;99.90;;;;;;4984016;28;20451;-76
2021/05/01 10:30:29;;;;;;;20.13;16.33;;;13.90;99.90;;;;;;4982065;28;20824;-77
2021/05/01 10:33:19;;;;;;;18.57;16.77;;;13.90;99.90;;;;;;4981531;28;20475;-78
2021/05/01 10:36:20;;;;;;;16.43;14.97;;;14.00;99.90;;;;;;4983403;28;20442;-79
2021/05/01 10:38:59;;;;;;;15.37;13.97;;;14.10;99.90;;;;;;4983216;28;21001;-77
2021/05/01 10:41:25;;;;;;;19.20;16.43;;;14.20;99.90;;;;;;4982835;28;20955;-78
2021/05/01 10:43:56;;;;;;;16.40;14.83;;;14.40;99.90;;;;;;4983649;28;20811;-77
2021/05/01 10:46:29;;;;;;;16.23;14.73;;;14.30;99.90;;;;;;4983651;28;20438;-77
2021/05/01 10:48:57;;;;;;;17.90;16.10;;;14.50;99.90;;;;;;4985744;28;20518;-76
2021/05/01 10:51:26;;;;;;;16.67;15.13;;;14.40;99.90;;;;;;4986038;28;21020;-77
2021/05/01 10:54:10;;;;;;;15.87;14.27;;;14.40;99.90;;;;;;4982651;28;20438;-77
2021/05/01 10:56:36;;;;;;;17.47;15.83;;;14.60;99.90;;;;;;4983574;28;20877;-76
2021/05/01 10:59:09;;;;;;;16.83;15.33;;;14.60;99.90;;;;;;4984812;28;20435;-77
2021/05/01 11:01:48;;;;;;;15.47;14.07;;;14.80;99.90;;;;;;4984589;28;20486;-77
2021/05/01 11:04:18;;;;;;;16.07;14.47;;;14.70;99.90;;;;;;4982452;28;20863;-76
2021/05/01 11:07:21;;;;;;;15.20;13.87;;;14.50;99.90;;;;;;4983426;28;20477;-76
2021/05/01 11:09:48;;;;;;;16.27;14.60;;;14.50;99.90;;;;;;5000001;28;20451;-71
2021/05/01 11:12:22;;;;;;;15.57;14.07;;;14.40;99.90;;;;;;4999264;28;20590;-70
2021/05/01 11:14:59;;;;;;;14.03;12.73;;;14.50;99.90;;;;;;4998676;28;21052;-67
2021/05/01 11:17:37;;;;;;;12.80;11.60;;;15.00;99.90;;;;;;4990872;28;20566;-68
2021/05/01 11:20:12;;;;;;;14.10;12.77;;;15.20;99.90;;;;;;4997393;28;20457;-69
2021/05/01 11:22:43;;;;;;;16.60;14.90;;;15.30;99.90;;;;;;5004355;28;20446;-78
2021/05/01 11:25:11;;;;;;;14.80;13.40;;;15.00;99.90;;;;;;5001007;28;20942;-78
2021/05/01 11:27:38;;;;;;;13.17;11.97;;;14.70;99.90;;;;;;4984976;28;21002;-78
2021/05/01 11:30:06;;;;;;;13.13;11.63;;;14.80;99.90;;;;;;4984308;28;20450;-77
2021/05/01 11:32:32;;;;;;;14.37;13.03;;;15.10;99.90;;;;;;4999976;28;20517;-77
2021/05/01 11:35:03;;;;;;;13.87;12.57;;;15.00;99.90;;;;;;5000680;28;20444;-77
2021/05/01 11:37:35;;;;;;;15.60;14.10;;;14.80;99.90;;;;;;5003542;28;20211;-75
2021/05/01 11:40:02;;;;;;;13.60;12.30;;;14.50;99.90;;;;;;5002010;28;20435;-76
2021/05/01 11:42:29;;;;;;;13.60;12.20;;;14.50;99.90;;;;;;5001297;28;20671;-75
2021/05/01 11:44:56;;;;;;;14.00;12.50;;;14.60;99.90;;;;;;5004141;28;20546;-77
2021/05/01 11:47:26;;;;;;;12.97;11.73;;;14.70;99.90;;;;;;5005344;28;20458;-79
2021/05/01 11:49:55;;;;;;;12.70;11.60;;;14.80;99.90;;;;;;5000393;28;20447;-80
2021/05/01 11:53:01;;;;;;;15.13;13.73;;;14.80;99.90;;;;;;4992031;28;20987;-77
2021/05/01 11:56:10;;;;;;;12.67;11.47;;;15.20;99.90;;;;;;4994073;28;20449;-80
2021/05/01 11:58:36;;;;;;;12.60;11.50;;;15.10;99.20;;;;;;5012502;28;20447;-77
2021/05/01 12:01:20;;;;;;;14.20;12.80;;;15.40;99.80;;;;;;4987693;28;20466;-77
2021/05/01 12:04:03;;;;;;;15.73;14.17;;;15.60;99.90;;;;;;4983087;28;20299;-78
2021/05/01 12:06:28;;;;;;;15.50;14.10;;;15.70;99.30;;;;;;4982701;28;20431;-75
2021/05/01 12:08:57;;;;;;;15.57;14.00;;;15.80;99.80;;;;;;4982000;28;20524;-78
2021/05/01 12:11:24;;;;;;;14.30;13.10;;;15.90;99.20;;;;;;4984431;28;20216;-75
2021/05/01 12:13:52;;;;;;;12.33;11.23;;;15.90;99.40;;;;;;4982501;28;20443;-77
2021/05/01 12:16:22;;;;;;;14.87;13.53;;;16.00;98.90;;;;;;4979622;28;20436;-76
2021/05/01 12:18:53;;;;;;;12.00;11.00;;;16.60;99.00;;;;;;4979422;28;20807;-77
2021/05/01 12:21:24;;;;;;;11.53;10.43;;;16.80;97.30;;;;;;4981876;28;20876;-75
2021/05/01 12:23:52;;;;;;;11.00;10.10;;;17.00;96.50;;;;;;4981592;28;21075;-77
2021/05/01 12:26:37;;;;;;;11.37;10.17;;;16.80;95.70;;;;;;4978835;28;20521;-76
2021/05/01 12:29:17;;;;;;;13.23;11.93;;;16.50;95.30;;;;;;4981106;28;20725;-76
2021/05/01 12:31:44;;;;;;;12.17;11.07;;;16.20;95.50;;;;;;4983781;28;21014;-76
2021/05/01 12:34:10;;;;;;;11.20;10.30;;;15.60;96.40;;;;;;4985084;28;20909;-76
2021/05/01 12:36:43;;;;;;;11.63;10.47;;;15.60;96.40;;;;;;4984715;28;20565;-76
2021/05/01 12:39:10;;;;;;;11.77;10.70;;;15.80;96.60;;;;;;4985664;28;20188;-76